Time;durP1;ratioP1;P1;durP2;ratioP2;P2;SDS_P1;SDS_P2;PMS_P1;PMS_P2;Temp;Humidity;BMP_temperature;BMP_pressure;BME280_temperature;BME280_humidity;BME280_pressure;Samples;Min_cycle;Max_cycle;Signal;HPM_P1;HPM_P2
2023/08/30 00:01:18;;;;;;;1.57;1.57;;;12.30;99.90;;;;;;5013872;28;20273;-55
2023/08/30 00:03:45;;;;;;;1.40;1.40;;;12.30;99.90;;;;;;5013989;28;20256;-56
2023/08/30 00:06:12;;;;;;;3.67;1.83;;;12.30;99.90;;;;;;5014746;28;20200;-55
2023/08/30 00:08:39;;;;;;;1.87;1.77;;;12.20;99.90;;;;;;5014808;28;20205;-56
2023/08/30 00:11:06;;;;;;;2.10;2.00;;;12.30;99.90;;;;;;5013490;28;20234;-55
2023/08/30 00:13:34;;;;;;;2.53;2.43;;;12.30;99.90;;;;;;5012860;28;20229;-55
2023/08/30 00:16:03;;;;;;;3.03;2.93;;;12.20;99.90;;;;;;5014307;28;20203;-55
2023/08/30 00:18:30;;;;;;;3.07;2.97;;;12.20;99.90;;;;;;5013583;28;20690;-56
2023/08/30 00:20:57;;;;;;;2.97;2.87;;;12.20;99.90;;;;;;5013049;28;20795;-55
2023/08/30 00:23:24;;;;;;;3.67;3.47;;;12.20;99.90;;;;;;5013714;28;20195;-56
2023/08/30 00:25:51;;;;;;;3.17;3.07;;;12.20;99.90;;;;;;5014545;28;20215;-55
2023/08/30 00:28:18;;;;;;;4.17;3.97;;;12.30;99.90;;;;;;5013553;28;20206;-54
2023/08/30 00:30:44;;;;;;;3.40;3.20;;;12.30;99.90;;;;;;5010429;28;20203;-55
2023/08/30 00:33:13;;;;;;;3.93;3.73;;;12.20;99.90;;;;;;5012406;28;20265;-55
2023/08/30 00:35:40;;;;;;;3.63;3.43;;;12.20;99.90;;;;;;5013280;28;20214;-56
2023/08/30 00:38:07;;;;;;;5.23;4.93;;;12.20;99.90;;;;;;5014207;28;20249;-55
2023/08/30 00:40:40;;;;;;;4.80;4.40;;;12.20;99.90;;;;;;5013201;28;20665;-55
2023/08/30 00:43:07;;;;;;;4.30;4.10;;;12.30;99.90;;;;;;5013194;28;20259;-56
2023/08/30 00:45:34;;;;;;;4.60;4.40;;;12.20;99.90;;;;;;5011057;28;20672;-55
2023/08/30 00:48:01;;;;;;;5.17;4.93;;;12.30;99.90;;;;;;5006163;28;20260;-55
2023/08/30 00:50:30;;;;;;;5.67;5.27;;;12.20;99.90;;;;;;5013917;28;20265;-55
2023/08/30 00:52:57;;;;;;;5.77;5.43;;;12.30;99.90;;;;;;5013045;28;20231;-54
2023/08/30 00:55:24;;;;;;;6.40;6.00;;;12.20;99.90;;;;;;5013847;28;20273;-55
2023/08/30 00:57:51;;;;;;;5.37;5.07;;;12.20;99.90;;;;;;5012870;28;20583;-55
2023/08/30 01:00:18;;;;;;;4.97;4.67;;;12.20;99.90;;;;;;5013544;28;20196;-55
2023/08/30 01:02:46;;;;;;;4.53;4.23;;;12.30;99.90;;;;;;5008766;28;20262;-55
2023/08/30 01:05:14;;;;;;;4.43;4.23;;;12.30;99.90;;;;;;5012644;28;20199;-55
2023/08/30 01:07:42;;;;;;;4.17;3.97;;;12.30;99.90;;;;;;5013654;28;20199;-55
2023/08/30 01:10:10;;;;;;;4.93;4.63;;;12.20;99.90;;;;;;5013502;28;20205;-56
2023/08/30 01:12:42;;;;;;;5.50;5.10;;;12.20;99.90;;;;;;5010391;28;20244;-54
2023/08/30 01:15:14;;;;;;;5.00;4.70;;;12.20;99.90;;;;;;5013560;28;20206;-55
2023/08/30 01:17:44;;;;;;;6.27;5.87;;;12.20;99.90;;;;;;5013447;28;20756;-55
2023/08/30 01:20:16;;;;;;;5.37;5.07;;;12.20;99.90;;;;;;5012250;28;20210;-56
2023/08/30 01:22:54;;;;;;;5.43;5.13;;;12.30;99.90;;;;;;5012535;28;20701;-55
2023/08/30 01:25:34;;;;;;;6.40;5.80;;;12.30;99.90;;;;;;5011456;28;20260;-54
2023/08/30 01:28:05;;;;;;;5.57;5.17;;;12.30;99.90;;;;;;5013135;28;20201;-55
2023/08/30 01:30:34;;;;;;;5.83;5.43;;;12.30;99.90;;;;;;5013315;28;20301;-55
2023/08/30 01:33:03;;;;;;;4.77;4.47;;;12.30;99.90;;;;;;5012212;28;20229;-55
2023/08/30 01:35:32;;;;;;;4.37;4.17;;;12.30;99.90;;;;;;5013490;28;20204;-55
2023/08/30 01:38:00;;;;;;;5.10;4.77;;;12.30;99.90;;;;;;5011857;28;20676;-55
2023/08/30 01:40:31;;;;;;;4.80;4.50;;;12.20;99.90;;;;;;5012096;28;20208;-55
2023/08/30 01:42:59;;;;;;;3.63;3.50;;;12.20;99.90;;;;;;5011370;28;20267;-56
2023/08/30 01:45:29;;;;;;;4.17;3.97;;;12.20;99.90;;;;;;5013085;28;20195;-56
2023/08/30 01:47:57;;;;;;;4.43;4.23;;;12.30;99.90;;;;;;5012743;28;20683;-55
2023/08/30 01:50:24;;;;;;;5.10;4.80;;;12.30;99.90;;;;;;5011755;28;20202;-55
2023/08/30 01:52:52;;;;;;;6.70;6.07;;;12.30;99.90;;;;;;5010956;28;20256;-55
2023/08/30 01:55:22;;;;;;;5.33;4.83;;;12.30;99.90;;;;;;5012803;28;20253;-55
2023/08/30 01:57:49;;;;;;;5.70;5.30;;;12.30;99.90;;;;;;5011525;28;20234;-56
2023/08/30 02:00:17;;;;;;;5.33;5.03;;;12.30;99.90;;;;;;5011355;28;20206;-55
2023/08/30 02:02:46;;;;;;;6.10;5.70;;;12.30;99.90;;;;;;5010543;28;20257;-55
2023/08/30 02:05:13;;;;;;;3.83;3.63;;;12.20;99.90;;;;;;5012574;28;20612;-55
2023/08/30 02:07:47;;;;;;;3.27;3.17;;;12.20;99.90;;;;;;5012487;28;20250;-55
2023/08/30 02:10:18;;;;;;;4.03;3.83;;;12.20;99.90;;;;;;5012546;28;20267;-55
2023/08/30 02:12:48;;;;;;;4.33;4.03;;;12.20;99.90;;;;;;5010696;28;20297;-55
2023/08/30 02:15:17;;;;;;;4.10;3.90;;;12.20;99.90;;;;;;5010861;28;20263;-56
2023/08/30 02:17:46;;;;;;;3.93;3.73;;;12.20;99.90;;;;;;5011515;28;20202;-55
2023/08/30 02:20:14;;;;;;;3.73;3.63;;;12.20;99.90;;;;;;5010540;28;20664;-55
2023/08/30 02:22:40;;;;;;;3.67;3.47;;;12.20;99.90;;;;;;5011567;28;20223;-55
2023/08/30 02:25:08;;;;;;;3.00;2.90;;;12.20;99.90;;;;;;5012020;28;20672;-55
2023/08/30 02:27:35;;;;;;;2.83;2.63;;;12.20;99.90;;;;;;5010356;28;20207;-55
2023/08/30 02:30:03;;;;;;;2.27;2.27;;;12.10;99.90;;;;;;5011098;28;20211;-56
2023/08/30 02:32:30;;;;;;;2.03;2.03;;;12.10;99.90;;;;;;5011265;28;20289;-55
2023/08/30 02:34:59;;;;;;;1.90;1.90;;;12.10;99.90;;;;;;5012291;28;20226;-55
2023/08/30 02:37:26;;;;;;;1.97;1.87;;;12.10;99.90;;;;;;5010968;28;20204;-55
2023/08/30 02:39:53;;;;;;;1.80;1.70;;;12.00;99.90;;;;;;5010334;28;20201;-56
2023/08/30 02:42:20;;;;;;;1.77;1.67;;;12.00;99.90;;;;;;5010989;28;20219;-55
2023/08/30 02:44:47;;;;;;;2.30;2.20;;;12.00;99.90;;;;;;5011984;28;20269;-55
2023/08/30 02:47:14;;;;;;;2.50;2.40;;;12.00;99.90;;;;;;5011810;28;20273;-55
2023/08/30 02:49:40;;;;;;;1.37;1.37;;;12.00;99.90;;;;;;5011766;28;20203;-55
2023/08/30 02:52:09;;;;;;;1.60;1.60;;;12.00;99.90;;;;;;5009885;28;20234;-55
2023/08/30 02:54:36;;;;;;;1.23;1.23;;;11.90;99.90;;;;;;5009937;28;20229;-55
2023/08/30 02:57:04;;;;;;;1.53;1.53;;;11.90;99.90;;;;;;5009763;28;20283;-54
2023/08/30 02:59:31;;;;;;;1.53;1.53;;;11.90;99.90;;;;;;5011623;28;20198;-55
2023/08/30 03:01:57;;;;;;;1.93;1.67;;;11.90;99.90;;;;;;5011483;28;20234;-55
2023/08/30 03:04:24;;;;;;;1.13;1.00;;;11.90;99.90;;;;;;5009626;28;20600;-54
2023/08/30 03:06:51;;;;;;;1.47;1.40;;;11.90;99.90;;;;;;5011472;28;20202;-55
2023/08/30 03:09:20;;;;;;;1.33;1.33;;;11.90;99.90;;;;;;5011682;28;20260;-54
2023/08/30 03:11:47;;;;;;;2.10;2.00;;;11.90;99.90;;;;;;5010487;28;20262;-54
2023/08/30 03:14:16;;;;;;;1.80;1.80;;;11.90;99.90;;;;;;5011130;28;20636;-55
2023/08/30 03:16:45;;;;;;;1.40;1.30;;;11.90;99.90;;;;;;5010538;28;20209;-55
2023/08/30 03:19:12;;;;;;;2.17;2.17;;;11.90;99.90;;;;;;5009889;28;20289;-55
2023/08/30 03:21:38;;;;;;;1.83;1.47;;;11.90;99.90;;;;;;5011546;28;20283;-55
2023/08/30 03:24:06;;;;;;;3.00;2.90;;;11.90;99.90;;;;;;5010314;28;20628;-56
2023/08/30 03:26:34;;;;;;;3.13;3.03;;;11.90;99.90;;;;;;5011479;28;20256;-55
2023/08/30 03:29:01;;;;;;;3.13;3.03;;;12.00;99.90;;;;;;5010435;28;20252;-55
2023/08/30 03:31:28;;;;;;;4.10;3.83;;;12.00;99.90;;;;;;5011349;28;20229;-55
2023/08/30 03:33:55;;;;;;;3.77;3.67;;;12.00;99.90;;;;;;5009768;28;20230;-55
2023/08/30 03:36:22;;;;;;;3.60;3.40;;;12.00;99.90;;;;;;5010792;28;20260;-55
2023/08/30 03:38:49;;;;;;;3.47;3.33;;;12.00;99.90;;;;;;5011252;28;20203;-55
2023/08/30 03:41:16;;;;;;;4.70;4.30;;;12.00;99.90;;;;;;5008311;28;20230;-55
2023/08/30 03:43:44;;;;;;;4.20;4.00;;;12.00;99.90;;;;;;5010333;28;20203;-55
2023/08/30 03:46:12;;;;;;;4.50;4.27;;;12.00;99.90;;;;;;5011436;28;20202;-54
2023/08/30 03:48:39;;;;;;;4.13;3.90;;;12.00;99.90;;;;;;5011398;28;20202;-55
2023/08/30 03:51:06;;;;;;;4.03;3.83;;;12.00;99.90;;;;;;5011124;28;20227;-54
2023/08/30 03:53:33;;;;;;;2.70;2.60;;;12.00;99.90;;;;;;5009368;28;20219;-55
2023/08/30 03:56:00;;;;;;;3.77;3.57;;;12.10;99.90;;;;;;5010665;28;20203;-55
2023/08/30 03:58:28;;;;;;;4.23;4.03;;;12.10;99.90;;;;;;5009727;28;20665;-55
2023/08/30 04:00:57;;;;;;;3.57;3.37;;;12.10;99.90;;;;;;5010844;28;21977;-55
2023/08/30 04:03:24;;;;;;;4.13;3.93;;;12.10;99.90;;;;;;5010478;28;20203;-55
2023/08/30 04:05:56;;;;;;;6.47;6.07;;;12.10;99.90;;;;;;5011071;28;20202;-55
2023/08/30 04:08:23;;;;;;;4.53;4.23;;;12.10;99.90;;;;;;5012086;28;20213;-55
2023/08/30 04:10:53;;;;;;;4.30;3.97;;;12.10;99.90;;;;;;5013853;28;20203;-55
2023/08/30 04:13:20;;;;;;;5.10;4.80;;;12.10;99.90;;;;;;5013982;28;20222;-55
2023/08/30 04:15:48;;;;;;;4.77;4.47;;;12.00;99.90;;;;;;5014639;28;20199;-55
2023/08/30 04:18:18;;;;;;;4.03;3.83;;;12.00;99.90;;;;;;5014398;28;20535;-55
2023/08/30 04:20:46;;;;;;;5.10;4.83;;;12.10;99.90;;;;;;5011551;28;20206;-54
2023/08/30 04:23:17;;;;;;;5.27;4.97;;;12.10;99.90;;;;;;5013615;28;20203;-54
2023/08/30 04:25:45;;;;;;;4.50;4.20;;;12.10;99.90;;;;;;5014388;28;20199;-54
2023/08/30 04:28:12;;;;;;;4.67;4.37;;;12.10;99.90;;;;;;5010405;28;20669;-55
2023/08/30 04:30:39;;;;;;;4.03;3.90;;;12.10;99.90;;;;;;5005597;28;20258;-54
2023/08/30 04:33:07;;;;;;;4.00;3.80;;;12.10;99.90;;;;;;5000103;28;20261;-54
2023/08/30 04:35:35;;;;;;;4.00;3.90;;;12.10;99.90;;;;;;5012613;28;20205;-55
2023/08/30 04:38:03;;;;;;;4.67;4.27;;;12.10;99.90;;;;;;5014179;28;20213;-55
2023/08/30 04:40:30;;;;;;;4.13;3.83;;;12.20;99.90;;;;;;5014183;28;20269;-55
2023/08/30 04:42:57;;;;;;;4.53;4.33;;;12.20;99.90;;;;;;5011715;28;20316;-55
2023/08/30 04:45:24;;;;;;;5.83;5.43;;;12.20;99.90;;;;;;5013771;28;20649;-55
2023/08/30 04:47:52;;;;;;;5.50;5.07;;;12.10;99.90;;;;;;5013970;28;20219;-54
2023/08/30 04:50:19;;;;;;;6.40;6.00;;;12.10;99.90;;;;;;5014099;28;20298;-55
2023/08/30 04:52:48;;;;;;;5.93;5.53;;;12.10;99.90;;;;;;5011287;28;20273;-55
2023/08/30 04:55:15;;;;;;;5.33;5.03;;;12.10;99.90;;;;;;5012901;28;20222;-55
2023/08/30 04:57:44;;;;;;;4.13;3.93;;;12.10;99.90;;;;;;5013702;28;20208;-55
2023/08/30 05:00:12;;;;;;;5.67;5.30;;;12.10;99.90;;;;;;5013690;28;20239;-55
2023/08/30 05:02:40;;;;;;;5.43;5.03;;;12.20;99.90;;;;;;5012879;28;20683;-55
2023/08/30 05:05:08;;;;;;;5.33;4.97;;;12.20;99.90;;;;;;5013765;28;20203;-56
2023/08/30 05:07:35;;;;;;;5.60;5.23;;;12.20;99.90;;;;;;5013284;28;20599;-55
2023/08/30 05:10:04;;;;;;;5.57;5.23;;;12.20;99.90;;;;;;5013624;28;20203;-54
2023/08/30 05:12:31;;;;;;;4.87;4.57;;;12.20;99.90;;;;;;5011856;28;20801;-54
2023/08/30 05:14:58;;;;;;;4.40;4.17;;;12.20;99.90;;;;;;5013019;28;20284;-55
2023/08/30 05:17:25;;;;;;;4.60;4.30;;;12.20;99.90;;;;;;5013546;28;20287;-54
2023/08/30 05:19:52;;;;;;;5.50;5.00;;;12.20;99.90;;;;;;5009262;28;20210;-55
2023/08/30 05:22:19;;;;;;;4.63;4.33;;;12.20;99.90;;;;;;5012295;28;20281;-55
2023/08/30 05:24:46;;;;;;;4.30;4.10;;;12.30;99.90;;;;;;5013254;28;20211;-54
2023/08/30 05:27:14;;;;;;;4.60;4.40;;;12.30;99.90;;;;;;5011912;28;20207;-55
2023/08/30 05:29:41;;;;;;;5.03;4.73;;;12.30;99.90;;;;;;5012474;28;20213;-55
2023/08/30 05:32:08;;;;;;;4.67;4.37;;;12.30;99.90;;;;;;5012447;28;20573;-54
2023/08/30 05:34:35;;;;;;;5.23;4.73;;;12.40;99.90;;;;;;5009064;28;20231;-55
2023/08/30 05:37:02;;;;;;;6.60;6.20;;;12.40;99.90;;;;;;5012890;28;20211;-54
2023/08/30 05:39:29;;;;;;;5.10;4.90;;;12.40;99.90;;;;;;5012628;28;20273;-54
2023/08/30 05:41:56;;;;;;;5.80;5.50;;;12.40;99.90;;;;;;5032573;28;20782;-54
2023/08/30 05:44:25;;;;;;;4.97;4.67;;;12.40;99.90;;;;;;5021209;28;20227;-55
2023/08/30 05:46:52;;;;;;;6.00;5.70;;;12.50;99.90;;;;;;5006868;28;20210;-55
2023/08/30 05:49:19;;;;;;;6.47;6.00;;;12.50;99.90;;;;;;5007770;28;20276;-53
2023/08/30 05:51:47;;;;;;;6.57;6.17;;;12.50;99.90;;;;;;5001220;28;20269;-54
2023/08/30 05:54:14;;;;;;;7.03;6.53;;;12.50;99.90;;;;;;5009930;28;20211;-55
2023/08/30 05:56:41;;;;;;;6.83;6.43;;;12.50;99.90;;;;;;5012499;28;20253;-55
2023/08/30 05:59:08;;;;;;;6.47;6.07;;;12.50;99.90;;;;;;5010659;28;20203;-54
2023/08/30 06:01:37;;;;;;;6.40;6.00;;;12.60;99.90;;;;;;5008487;28;20708;-55
2023/08/30 06:04:05;;;;;;;6.53;6.13;;;12.60;99.90;;;;;;5010137;28;20332;-54
2023/08/30 06:06:32;;;;;;;6.37;5.93;;;12.70;99.90;;;;;;5010494;28;20232;-55
2023/08/30 06:08:59;;;;;;;6.63;6.13;;;12.70;99.90;;;;;;5001758;28;20207;-55
2023/08/30 06:11:26;;;;;;;5.57;5.27;;;12.80;99.90;;;;;;5006624;28;20624;-55
2023/08/30 06:13:53;;;;;;;4.77;4.57;;;12.70;99.90;;;;;;5011698;28;20226;-55
2023/08/30 06:16:20;;;;;;;5.27;4.87;;;12.80;99.90;;;;;;5011251;28;20199;-55
2023/08/30 06:18:48;;;;;;;5.03;4.73;;;12.80;99.90;;;;;;5000100;28;20286;-55
2023/08/30 06:21:15;;;;;;;5.53;5.03;;;12.90;99.90;;;;;;4992821;28;20224;-55
2023/08/30 06:23:42;;;;;;;4.83;4.43;;;12.90;99.90;;;;;;4992019;28;20256;-54
2023/08/30 06:26:09;;;;;;;5.00;4.70;;;12.90;99.90;;;;;;5009793;28;20236;-55
2023/08/30 06:28:36;;;;;;;4.87;4.63;;;13.10;99.90;;;;;;5010456;28;20202;-54
2023/08/30 06:31:03;;;;;;;4.40;4.10;;;13.10;99.90;;;;;;5010351;28;20298;-54
2023/08/30 06:33:30;;;;;;;5.00;4.70;;;13.20;99.90;;;;;;5011027;28;20748;-55
2023/08/30 06:35:58;;;;;;;5.87;5.47;;;13.10;99.90;;;;;;5011946;28;20660;-54
2023/08/30 06:38:25;;;;;;;4.50;4.20;;;13.20;99.90;;;;;;5011096;28;20268;-55
2023/08/30 06:40:53;;;;;;;5.23;4.83;;;13.40;99.90;;;;;;5011775;28;20261;-55
2023/08/30 06:43:20;;;;;;;4.20;3.97;;;13.50;99.90;;;;;;5010997;28;20218;-54
2023/08/30 06:45:47;;;;;;;2.90;2.77;;;13.50;99.90;;;;;;5011285;28;20203;-55
2023/08/30 06:48:17;;;;;;;3.30;3.20;;;13.60;99.90;;;;;;5012029;28;20273;-55
2023/08/30 06:50:44;;;;;;;3.50;3.30;;;13.70;99.90;;;;;;5011820;28;20261;-55
2023/08/30 06:53:12;;;;;;;4.33;4.00;;;13.80;99.90;;;;;;5011113;28;20277;-55
2023/08/30 06:55:39;;;;;;;4.23;3.93;;;14.00;99.90;;;;;;5009580;28;20281;-55
2023/08/30 06:58:06;;;;;;;2.97;2.77;;;14.10;99.90;;;;;;5011533;28;20736;-55
2023/08/30 07:00:33;;;;;;;3.30;3.10;;;14.30;99.90;;;;;;5011518;28;20213;-55
2023/08/30 07:03:00;;;;;;;3.00;2.90;;;14.40;99.90;;;;;;5010909;28;20226;-54
2023/08/30 07:05:27;;;;;;;2.90;2.80;;;14.40;99.90;;;;;;5011555;28;20848;-54
2023/08/30 07:07:54;;;;;;;3.00;2.90;;;14.70;99.90;;;;;;5010734;28;20285;-55
2023/08/30 07:10:23;;;;;;;3.00;2.90;;;15.20;99.90;;;;;;5011736;28;20249;-54
2023/08/30 07:12:50;;;;;;;3.17;3.07;;;16.20;99.90;;;;;;5010635;28;20318;-56
2023/08/30 07:15:17;;;;;;;2.63;2.43;;;17.30;99.90;;;;;;5010693;28;20705;-56
2023/08/30 07:17:44;;;;;;;3.07;2.97;;;18.20;99.90;;;;;;5010219;28;20235;-56
2023/08/30 07:20:12;;;;;;;1.93;1.93;;;18.90;99.90;;;;;;5010674;28;20245;-55
2023/08/30 07:22:39;;;;;;;3.80;3.37;;;18.90;99.90;;;;;;5010563;28;20219;-56
2023/08/30 07:25:08;;;;;;;2.33;2.23;;;18.70;99.90;;;;;;5007044;28;20200;-56
2023/08/30 07:27:37;;;;;;;1.67;1.60;;;19.10;99.90;;;;;;5007025;28;20199;-56
2023/08/30 07:30:05;;;;;;;1.50;1.33;;;20.00;99.90;;;;;;5011371;28;20207;-55
2023/08/30 07:32:32;;;;;;;1.00;1.00;;;20.70;99.90;;;;;;5010761;28;20661;-55
2023/08/30 07:34:59;;;;;;;0.87;0.87;;;21.50;99.90;;;;;;5013079;28;20693;-56
2023/08/30 07:37:26;;;;;;;0.90;0.90;;;21.90;99.90;;;;;;5030951;28;20229;-55
2023/08/30 07:39:54;;;;;;;0.83;0.83;;;21.80;99.90;;;;;;5011364;28;20207;-56
2023/08/30 07:42:21;;;;;;;1.20;0.83;;;22.50;99.90;;;;;;5012197;28;20720;-55
2023/08/30 07:44:49;;;;;;;0.67;0.67;;;22.30;99.90;;;;;;5014208;28;20330;-55
2023/08/30 07:47:16;;;;;;;1.10;1.10;;;22.80;99.90;;;;;;5013980;28;20268;-56
2023/08/30 07:49:44;;;;;;;1.37;1.00;;;23.10;99.90;;;;;;5015036;28;20207;-55
2023/08/30 07:52:11;;;;;;;1.03;1.03;;;23.10;99.90;;;;;;5014086;28;20285;-55
2023/08/30 07:54:39;;;;;;;1.40;1.40;;;23.90;99.90;;;;;;5013913;28;20736;-55
2023/08/30 07:57:06;;;;;;;1.50;1.40;;;23.90;99.90;;;;;;5014061;28;20249;-55
2023/08/30 07:59:34;;;;;;;1.30;1.13;;;24.10;99.90;;;;;;5014916;28;20293;-55
2023/08/30 08:02:03;;;;;;;1.80;1.40;;;24.40;99.90;;;;;;5014556;28;20306;-56
2023/08/30 08:04:30;;;;;;;2.23;2.20;;;24.20;99.90;;;;;;5013095;28;20697;-56
2023/08/30 08:06:57;;;;;;;1.60;1.60;;;23.60;99.90;;;;;;5014791;28;20257;-58
2023/08/30 08:09:24;;;;;;;1.43;1.30;;;23.40;99.90;;;;;;5012096;28;20662;-57
2023/08/30 08:11:51;;;;;;;1.57;1.17;;;23.20;99.90;;;;;;5012776;28;20226;-57
2023/08/30 08:14:18;;;;;;;1.43;1.30;;;23.30;99.90;;;;;;5012937;28;20199;-56
2023/08/30 08:16:45;;;;;;;1.73;1.73;;;23.40;99.90;;;;;;5014309;28;20203;-55
2023/08/30 08:19:13;;;;;;;2.00;1.33;;;23.40;99.90;;;;;;5014495;28;20630;-55
2023/08/30 08:21:40;;;;;;;1.27;1.27;;;23.20;99.90;;;;;;5014533;28;20227;-54
2023/08/30 08:24:08;;;;;;;1.63;1.53;;;23.80;99.90;;;;;;5011945;28;20229;-55
2023/08/30 08:26:34;;;;;;;2.20;1.40;;;24.10;99.90;;;;;;5013221;28;20204;-54
2023/08/30 08:29:03;;;;;;;1.13;1.13;;;24.10;99.90;;;;;;5014241;28;20203;-54
2023/08/30 08:31:30;;;;;;;0.93;0.93;;;24.80;99.90;;;;;;5014134;28;20226;-55
2023/08/30 08:34:08;;;;;;;1.03;0.60;;;24.00;99.90;;;;;;5012410;28;20211;-54
2023/08/30 08:36:36;;;;;;;0.73;0.60;;;24.00;99.90;;;;;;5014215;28;20261;-55
2023/08/30 08:39:04;;;;;;;1.00;1.00;;;24.60;99.90;;;;;;5014233;28;20207;-54
2023/08/30 08:41:36;;;;;;;1.40;1.40;;;24.40;99.90;;;;;;5010680;28;20620;-55
2023/08/30 08:44:06;;;;;;;1.37;1.10;;;24.80;99.90;;;;;;5011837;28;20195;-54
2023/08/30 08:46:35;;;;;;;1.70;1.00;;;24.20;99.90;;;;;;5012042;28;20250;-55
2023/08/30 08:49:06;;;;;;;1.00;1.00;;;24.70;99.90;;;;;;5013865;28;20203;-54
2023/08/30 08:51:36;;;;;;;1.63;1.53;;;24.80;99.90;;;;;;5013804;28;20293;-55
2023/08/30 08:54:05;;;;;;;1.60;1.50;;;25.00;99.90;;;;;;5012767;28;20203;-55
2023/08/30 08:56:33;;;;;;;1.37;1.37;;;24.90;99.90;;;;;;5012726;28;20697;-54
2023/08/30 08:59:01;;;;;;;1.03;1.03;;;24.80;99.90;;;;;;5008225;28;20234;-55
2023/08/30 09:01:28;;;;;;;1.17;1.17;;;25.00;99.90;;;;;;5013536;28;20219;-55
2023/08/30 09:03:56;;;;;;;1.30;1.20;;;25.30;99.90;;;;;;5011573;28;20203;-55
2023/08/30 09:06:23;;;;;;;1.13;1.13;;;25.30;99.90;;;;;;5013698;28;20207;-55
2023/08/30 09:08:52;;;;;;;1.13;1.13;;;25.40;99.90;;;;;;5013626;28;20218;-55
2023/08/30 09:11:18;;;;;;;1.70;1.10;;;25.60;99.90;;;;;;5012651;28;20235;-55
2023/08/30 09:13:46;;;;;;;0.90;0.90;;;25.40;99.90;;;;;;5012872;28;20203;-55
2023/08/30 09:16:14;;;;;;;1.53;0.80;;;25.80;99.90;;;;;;5013420;28;20233;-54
2023/08/30 09:18:42;;;;;;;0.50;0.50;;;26.40;99.90;;;;;;5013351;28;20756;-55
2023/08/30 09:21:09;;;;;;;1.63;0.80;;;26.60;99.90;;;;;;5005363;28;20270;-55
2023/08/30 09:23:36;;;;;;;1.10;1.00;;;26.60;99.90;;;;;;4993082;28;20204;-55
2023/08/30 09:26:05;;;;;;;1.05;1.00;;;26.50;99.90;;;;;;5001416;28;20647;-56
2023/08/30 09:28:32;;;;;;;1.75;0.80;;;26.40;99.90;;;;;;5013213;28;20196;-55
2023/08/30 09:31:00;;;;;;;0.63;0.63;;;26.20;99.90;;;;;;5013047;28;20257;-56
2023/08/30 09:33:34;;;;;;;1.38;0.70;;;26.20;99.90;;;;;;5012379;28;20690;-56
2023/08/30 09:36:02;;;;;;;0.40;0.40;;;26.50;99.90;;;;;;5013068;28;20227;-55
2023/08/30 09:38:28;;;;;;;1.13;0.80;;;26.80;99.90;;;;;;5013110;28;20209;-55
2023/08/30 09:41:05;;;;;;;1.55;0.70;;;26.60;99.90;;;;;;5012048;28;20208;-54
2023/08/30 09:43:34;;;;;;;2.40;1.37;;;26.00;99.90;;;;;;5012289;28;20265;-55
2023/08/30 09:46:04;;;;;;;0.60;0.60;;;26.50;99.90;;;;;;5011816;28;20200;-55
2023/08/30 09:48:33;;;;;;;0.50;0.50;;;26.70;99.90;;;;;;5012734;28;20207;-55
2023/08/30 09:51:04;;;;;;;1.35;0.43;;;26.50;99.90;;;;;;5011141;28;20322;-57
2023/08/30 09:53:34;;;;;;;0.90;0.50;;;26.40;99.90;;;;;;5010283;28;20203;-54
2023/08/30 09:56:02;;;;;;;0.50;0.50;;;26.80;99.90;;;;;;5012459;28;20695;-55
2023/08/30 09:58:31;;;;;;;0.50;0.50;;;27.00;99.90;;;;;;5012779;28;20221;-55
2023/08/30 10:01:02;;;;;;;0.40;0.40;;;26.90;99.90;;;;;;5012697;28;20223;-54
2023/08/30 10:03:30;;;;;;;0.43;0.43;;;26.80;99.90;;;;;;5012172;28;20200;-55
2023/08/30 10:05:59;;;;;;;1.20;0.70;;;26.40;99.90;;;;;;5008805;28;20257;-55
2023/08/30 10:08:30;;;;;;;0.63;0.50;;;26.80;99.90;;;;;;5010175;28;20282;-56
2023/08/30 10:11:00;;;;;;;0.88;0.70;;;26.70;99.90;;;;;;5012263;28;20234;-54
2023/08/30 10:13:27;;;;;;;1.53;0.57;;;26.90;99.90;;;;;;5010634;28;20210;-54
2023/08/30 10:16:04;;;;;;;0.93;0.60;;;26.80;99.90;;;;;;5003437;28;20219;-55
2023/08/30 10:18:34;;;;;;;0.60;0.50;;;26.60;99.90;;;;;;5012187;28;20198;-56
2023/08/30 10:21:06;;;;;;;0.73;0.73;;;26.40;99.90;;;;;;5012462;28;20313;-56
2023/08/30 10:23:34;;;;;;;0.80;0.80;;;26.70;99.90;;;;;;5011366;28;20265;-55
2023/08/30 10:26:04;;;;;;;0.77;0.77;;;26.80;99.90;;;;;;5012094;28;20253;-55
2023/08/30 10:28:32;;;;;;;2.47;0.90;;;26.00;99.90;;;;;;5010599;28;20231;-54
2023/08/30 10:31:00;;;;;;;0.93;0.90;;;24.70;99.90;;;;;;5010997;28;20278;-54
2023/08/30 10:33:27;;;;;;;1.17;1.17;;;23.50;99.90;;;;;;5011338;28;20552;-55
2023/08/30 10:35:55;;;;;;;2.10;0.90;;;22.40;99.90;;;;;;5011880;28;20223;-54
2023/08/30 10:38:27;;;;;;;1.30;1.30;;;21.60;99.90;;;;;;5012094;28;20230;-54
2023/08/30 10:40:53;;;;;;;1.03;1.03;;;21.10;99.90;;;;;;5010913;28;20243;-55
2023/08/30 10:43:30;;;;;;;0.90;0.80;;;20.70;99.90;;;;;;5010533;28;20203;-54
2023/08/30 10:46:02;;;;;;;1.17;1.17;;;20.70;99.90;;;;;;5010786;28;20278;-54
2023/08/30 10:48:39;;;;;;;0.90;0.90;;;20.80;99.90;;;;;;5011937;28;20269;-53
2023/08/30 10:51:20;;;;;;;1.37;1.37;;;20.80;99.90;;;;;;5011222;28;20218;-55
2023/08/30 10:53:57;;;;;;;1.80;1.43;;;20.70;99.90;;;;;;5011061;28;20207;-54
2023/08/30 10:56:30;;;;;;;0.90;0.90;;;20.60;99.90;;;;;;5005239;28;20238;-54
2023/08/30 10:58:57;;;;;;;1.27;1.27;;;20.90;99.90;;;;;;5009939;28;20615;-54
2023/08/30 11:01:26;;;;;;;1.47;1.30;;;21.30;99.90;;;;;;5011566;28;20226;-55
2023/08/30 11:03:53;;;;;;;2.13;2.03;;;21.50;99.90;;;;;;5010989;28;20265;-55
2023/08/30 11:06:22;;;;;;;2.73;1.90;;;21.50;99.90;;;;;;5011766;28;20199;-55
2023/08/30 11:08:50;;;;;;;2.47;2.27;;;21.50;99.90;;;;;;5010829;28;20204;-55
2023/08/30 11:11:17;;;;;;;2.53;2.43;;;21.40;99.90;;;;;;5011191;28;20219;-55
2023/08/30 11:13:44;;;;;;;2.30;2.20;;;21.10;99.90;;;;;;5010744;28;20207;-54
2023/08/30 11:16:11;;;;;;;3.10;2.80;;;21.00;99.90;;;;;;5010895;28;20718;-55
2023/08/30 11:18:41;;;;;;;1.80;1.63;;;20.80;99.90;;;;;;5011349;28;20214;-54
2023/08/30 11:21:09;;;;;;;1.60;1.60;;;20.60;99.90;;;;;;5011332;28;20223;-54
2023/08/30 11:23:36;;;;;;;1.60;1.57;;;20.50;99.90;;;;;;5009846;28;20207;-54
2023/08/30 11:26:04;;;;;;;1.67;1.67;;;20.50;99.90;;;;;;5011172;28;20920;-55
2023/08/30 11:28:31;;;;;;;1.80;1.80;;;20.40;99.90;;;;;;5011351;28;20215;-54
2023/08/30 11:30:58;;;;;;;2.17;2.10;;;20.30;99.90;;;;;;5011320;28;20235;-54
2023/08/30 11:33:26;;;;;;;1.90;1.60;;;20.10;99.90;;;;;;5010396;28;20207;-55
2023/08/30 11:35:54;;;;;;;1.70;1.60;;;20.30;99.90;;;;;;5011222;28;20245;-55
2023/08/30 11:38:22;;;;;;;2.00;1.37;;;20.60;99.90;;;;;;5010362;28;20777;-54
2023/08/30 11:40:51;;;;;;;1.77;1.67;;;20.70;99.90;;;;;;5011207;28;20257;-54
2023/08/30 11:43:19;;;;;;;1.00;1.00;;;20.60;99.90;;;;;;5010591;28;20249;-55
2023/08/30 11:45:46;;;;;;;1.43;1.43;;;20.70;99.90;;;;;;5010126;28;20203;-58
2023/08/30 11:48:14;;;;;;;1.70;1.60;;;20.60;99.90;;;;;;5011027;28;20214;-54
2023/08/30 11:50:43;;;;;;;2.10;2.00;;;20.70;99.90;;;;;;5008996;28;20210;-54
2023/08/30 11:53:14;;;;;;;1.67;1.67;;;20.60;99.90;;;;;;5001739;28;20222;-55
2023/08/30 11:55:42;;;;;;;2.77;2.57;;;20.30;99.90;;;;;;5011027;28;20788;-54
2023/08/30 11:58:09;;;;;;;1.60;1.50;;;20.00;99.90;;;;;;5011005;28;20618;-54
2023/08/30 12:00:37;;;;;;;1.63;1.63;;;20.20;99.90;;;;;;5011519;28;20199;-54
2023/08/30 12:03:06;;;;;;;1.87;1.87;;;20.30;99.90;;;;;;5010574;28;20199;-54
2023/08/30 12:05:36;;;;;;;2.20;1.43;;;20.60;99.90;;;;;;5010229;28;20207;-54
2023/08/30 12:08:03;;;;;;;1.60;1.47;;;20.80;99.90;;;;;;5011060;28;20389;-54
2023/08/30 12:10:32;;;;;;;2.40;2.30;;;20.80;99.90;;;;;;5010874;28;20697;-55
2023/08/30 12:12:59;;;;;;;1.97;1.87;;;20.80;99.90;;;;;;5010428;28;20228;-54
2023/08/30 12:15:27;;;;;;;2.23;2.13;;;20.80;99.90;;;;;;5011085;28;20290;-54
2023/08/30 12:17:55;;;;;;;2.00;1.80;;;20.60;99.90;;;;;;5010022;28;20235;-55
2023/08/30 12:20:23;;;;;;;2.37;2.17;;;20.50;99.90;;;;;;5002704;28;20235;-54
2023/08/30 12:22:51;;;;;;;2.47;2.07;;;20.50;99.90;;;;;;5009890;28;20285;-54
2023/08/30 12:25:19;;;;;;;2.23;2.03;;;20.40;99.90;;;;;;5011009;28;20211;-54
2023/08/30 12:27:48;;;;;;;1.47;1.47;;;20.40;99.90;;;;;;5010926;28;20203;-54
2023/08/30 12:30:16;;;;;;;1.20;1.20;;;20.30;99.90;;;;;;5013814;28;20203;-55
2023/08/30 12:32:44;;;;;;;1.27;1.00;;;20.30;99.90;;;;;;5011951;28;20666;-54
2023/08/30 12:35:11;;;;;;;1.50;1.50;;;20.50;99.90;;;;;;5014113;28;20196;-55
2023/08/30 12:37:38;;;;;;;1.73;1.57;;;20.60;99.90;;;;;;5014091;28;20227;-54
2023/08/30 12:40:06;;;;;;;1.67;1.57;;;20.70;99.90;;;;;;5014036;28;20731;-54
2023/08/30 12:42:33;;;;;;;0.97;0.97;;;20.80;99.90;;;;;;5013555;28;20231;-55
2023/08/30 12:45:03;;;;;;;1.00;1.00;;;20.90;99.90;;;;;;5014259;28;20215;-54
2023/08/30 12:47:30;;;;;;;1.10;1.10;;;20.90;99.90;;;;;;5012125;28;20191;-55
2023/08/30 12:49:57;;;;;;;0.70;0.70;;;20.70;99.90;;;;;;4999579;28;20196;-55
2023/08/30 12:52:24;;;;;;;1.07;0.97;;;20.50;99.90;;;;;;4993872;28;20278;-55